ENVR/VRY METAR and TAF weather

Enter ICAO airport designator
Station Type Date Time Source
ENVR METAR 2021/07/28 13:50 UTC NOAA

ENVR 281350Z 36009KT CAVOK 16/12 Q1009


Station Type Date Time Source
ENVR Decoded METAR 2021/07/28 13:50 UTC NOAA

Station name not available
Jul 28, 2021 - 09:50 AM EDT / 2021.07.28 1350 UTC
Wind: from the N (360 degrees) at 10 MPH (9 KT):0
Visibility: greater than 7 mile(s):0
Temperature: 60 F (16 C)
Dew Point: 53 F (12 C)
Relative Humidity: 77%
Pressure (altimeter): 29.80 in. Hg (1009 hPa)
ob: ENVR 281350Z 36009KT CAVOK 16/12 Q1009
cycle: 14

Station Type Date Time Source
ENVR TAF UTC NOAA

Error!

Example: see airport list